createdAt,value
2022-10-26T03:36:11.921Z,13.50
2022-10-26T03:38:45.935Z,13.60
2022-10-26T03:41:20.671Z,13.60
2022-10-26T03:43:54.735Z,13.60
2022-10-26T03:46:28.406Z,13.60
2022-10-26T03:49:02.659Z,13.60
2022-10-26T03:51:36.240Z,13.60
2022-10-26T03:54:10.397Z,13.60
2022-10-26T03:56:44.272Z,13.60
2022-10-26T03:59:17.498Z,13.50
2022-10-26T04:01:54.046Z,13.50
2022-10-26T04:04:30.987Z,13.50
2022-10-26T04:07:05.141Z,13.50
2022-10-26T04:09:38.583Z,13.60
2022-10-26T04:12:11.652Z,13.60
2022-10-26T04:14:44.473Z,13.50
2022-10-26T04:17:17.473Z,13.60
2022-10-26T04:19:51.466Z,13.50
2022-10-26T04:22:25.218Z,13.60
2022-10-26T04:24:59.489Z,13.60
2022-10-26T04:27:34.111Z,13.60
2022-10-26T04:30:10.148Z,13.60
2022-10-26T04:32:46.965Z,13.60
2022-10-26T04:35:20.592Z,13.60
2022-10-26T04:37:59.101Z,13.60
2022-10-26T04:40:33.789Z,13.60
2022-10-26T04:43:07.040Z,13.60
2022-10-26T04:45:47.575Z,13.60
2022-10-26T04:48:21.115Z,13.60
2022-10-26T04:50:54.945Z,13.60
2022-10-26T04:53:28.294Z,13.60
2022-10-26T04:56:01.672Z,13.60
2022-10-26T04:58:34.523Z,13.60
2022-10-26T05:01:07.375Z,13.70
2022-10-26T05:03:40.776Z,13.70
2022-10-26T05:06:14.689Z,13.70
2022-10-26T05:08:48.987Z,13.70
2022-10-26T05:11:22.112Z,13.70
2022-10-26T05:13:56.704Z,13.70
2022-10-26T05:16:31.087Z,13.70
2022-10-26T05:19:04.961Z,13.70
2022-10-26T05:21:38.290Z,13.70
2022-10-26T05:24:12.553Z,13.80
2022-10-26T05:26:46.320Z,13.80
2022-10-26T05:29:19.529Z,13.80
2022-10-26T05:31:52.351Z,13.80
2022-10-26T05:34:25.255Z,13.80
2022-10-26T05:36:58.929Z,13.80
2022-10-26T05:39:31.750Z,13.80
2022-10-26T05:42:04.447Z,13.80
2022-10-26T05:44:37.244Z,13.80
2022-10-26T05:47:09.925Z,13.70
2022-10-26T05:49:42.787Z,13.70
2022-10-26T05:52:15.769Z,13.70
2022-10-26T05:54:49.425Z,13.70
2022-10-26T05:57:23.191Z,13.70
2022-10-26T05:59:57.038Z,13.60
2022-10-26T06:02:57.931Z,13.60
2022-10-26T06:05:37.285Z,13.60
2022-10-26T06:08:11.799Z,13.60
2022-10-26T06:10:46.435Z,13.50
2022-10-26T06:13:21.473Z,13.50
2022-10-26T06:16:21.159Z,13.50
2022-10-26T06:19:02.060Z,13.50
2022-10-26T06:21:44.291Z,13.50
2022-10-26T06:24:30.575Z,13.40
2022-10-26T06:27:19.674Z,13.40
2022-10-26T06:30:05.007Z,13.50
2022-10-26T06:32:45.688Z,13.40
2022-10-26T06:35:31.436Z,13.50
2022-10-26T06:38:11.124Z,13.50
2022-10-26T06:40:49.779Z,13.50
2022-10-26T06:43:26.489Z,13.50
2022-10-26T06:46:09.483Z,13.60
2022-10-26T06:49:13.404Z,13.60
2022-10-26T06:51:53.029Z,13.60
2022-10-26T06:54:52.426Z,13.60
2022-10-26T06:57:32.808Z,13.60
2022-10-26T07:00:16.245Z,13.70
2022-10-26T07:02:50.512Z,13.70
2022-10-26T07:05:24.315Z,13.70
2022-10-26T07:07:57.607Z,13.70
2022-10-26T07:10:31.505Z,13.70
2022-10-26T07:13:09.293Z,13.80
2022-10-26T07:15:43.733Z,13.80
2022-10-26T07:18:17.249Z,13.80
2022-10-26T07:20:50.941Z,13.80
2022-10-26T07:23:24.974Z,13.90
2022-10-26T07:26:00.959Z,13.90
2022-10-26T07:28:36.700Z,14.00
2022-10-26T07:31:10.283Z,14.00
2022-10-26T07:33:44.882Z,14.00
2022-10-26T07:36:18.259Z,14.10
2022-10-26T07:38:54.625Z,14.20
2022-10-26T07:41:27.586Z,14.30
2022-10-26T07:44:01.449Z,14.30
2022-10-26T07:46:34.863Z,14.40
2022-10-26T07:49:08.168Z,14.50
2022-10-26T07:51:40.976Z,14.60
2022-10-26T07:54:28.711Z,14.60
2022-10-26T07:59:38.200Z,14.70
2022-10-26T08:02:11.053Z,14.80
2022-10-26T08:04:51.312Z,14.80
2022-10-26T08:07:26.118Z,14.80
2022-10-26T08:09:58.981Z,14.80
2022-10-26T08:12:31.633Z,14.90
2022-10-26T08:15:04.999Z,14.90
2022-10-26T08:17:37.692Z,14.90
2022-10-26T08:20:10.984Z,14.90
2022-10-26T08:22:50.371Z,15.00
2022-10-26T08:25:23.375Z,15.00
2022-10-26T08:27:57.240Z,15.00
2022-10-26T08:30:31.358Z,15.00
2022-10-26T08:33:06.123Z,15.10
2022-10-26T08:35:38.938Z,15.10
2022-10-26T08:38:11.669Z,15.20
2022-10-26T08:40:44.542Z,15.20
2022-10-26T08:43:31.876Z,15.30
2022-10-26T08:46:29.186Z,15.40
2022-10-26T08:49:25.686Z,15.40
2022-10-26T08:52:01.644Z,15.50
2022-10-26T08:54:42.302Z,15.60
2022-10-26T08:57:35.466Z,15.60
2022-10-26T09:00:15.126Z,15.60
2022-10-26T09:02:54.180Z,15.70
2022-10-26T09:05:50.727Z,15.70
2022-10-26T09:08:51.033Z,15.70
2022-10-26T09:11:48.104Z,15.70
2022-10-26T09:14:40.666Z,15.70
2022-10-26T09:17:34.556Z,15.70
2022-10-26T09:20:51.701Z,15.70
2022-10-26T09:23:40.118Z,15.70
2022-10-26T09:26:30.413Z,15.80
2022-10-26T09:29:06.387Z,15.80
2022-10-26T09:31:45.041Z,15.90
2022-10-26T09:34:25.265Z,16.00
2022-10-26T09:36:58.287Z,16.00
2022-10-26T09:39:40.007Z,16.10
2022-10-26T09:42:22.203Z,16.20
2022-10-26T09:45:20.561Z,16.20
2022-10-26T09:47:56.672Z,16.30
2022-10-26T09:50:33.933Z,16.40
2022-10-26T09:53:06.709Z,16.50
2022-10-26T09:55:45.133Z,16.60
2022-10-26T09:58:21.933Z,16.80
2022-10-26T10:00:55.224Z,17.00
2022-10-26T10:03:30.985Z,17.20
2022-10-26T10:06:21.871Z,17.40
2022-10-26T10:09:23.084Z,17.60
2022-10-26T10:11:58.765Z,17.70
2022-10-26T10:14:39.002Z,17.70
2022-10-26T10:17:23.109Z,17.80
2022-10-26T10:20:07.677Z,17.80
2022-10-26T10:22:54.163Z,17.80
2022-10-26T10:25:38.812Z,17.70
2022-10-26T10:28:27.205Z,17.70
2022-10-26T10:31:06.295Z,17.80
2022-10-26T10:33:41.888Z,17.90
2022-10-26T10:36:18.174Z,17.90
2022-10-26T10:38:53.120Z,18.10
2022-10-26T10:41:32.723Z,18.20
2022-10-26T10:44:31.744Z,18.30
2022-10-26T10:47:07.340Z,18.50
2022-10-26T10:49:40.608Z,18.50
2022-10-26T10:52:25.239Z,18.40
2022-10-26T10:55:14.495Z,18.30
2022-10-26T10:57:48.119Z,18.20
2022-10-26T11:00:22.567Z,18.10
2022-10-26T11:03:11.672Z,18.10
2022-10-26T11:06:06.254Z,18.00
2022-10-26T11:08:51.174Z,18.00
2022-10-26T11:11:45.644Z,18.00
2022-10-26T11:14:35.964Z,18.00
2022-10-26T11:17:20.785Z,18.10
2022-10-26T11:20:17.018Z,18.20
2022-10-26T11:22:54.842Z,18.50
2022-10-26T11:25:48.713Z,18.80
2022-10-26T11:28:40.132Z,19.10
2022-10-26T11:31:23.146Z,19.40
2022-10-26T11:34:14.761Z,19.80
2022-10-26T11:36:53.774Z,20.10
2022-10-26T11:39:47.597Z,20.40
2022-10-26T11:42:40.739Z,20.60
2022-10-26T11:45:22.071Z,20.80
2022-10-26T11:48:21.348Z,20.90
2022-10-26T11:50:59.444Z,20.90
2022-10-26T11:53:39.774Z,21.00
2022-10-26T11:56:41.921Z,21.20
2022-10-26T11:59:28.075Z,21.50
2022-10-26T12:02:15.741Z,21.70
2022-10-26T12:05:22.460Z,21.90
2022-10-26T12:07:59.040Z,22.00
2022-10-26T12:10:38.744Z,22.10
2022-10-26T12:13:21.801Z,22.10
2022-10-26T12:16:27.765Z,22.20
2022-10-26T12:22:11.849Z,22.60
2022-10-26T12:24:46.720Z,22.80
2022-10-26T12:27:38.461Z,23.00
2022-10-26T12:30:30.743Z,23.20
2022-10-26T12:33:30.238Z,23.50
2022-10-26T12:36:03.211Z,23.70
2022-10-26T12:38:39.139Z,23.90
2022-10-26T12:41:20.970Z,24.10
2022-10-26T12:43:57.859Z,24.30
2022-10-26T12:46:31.065Z,24.60
2022-10-26T12:49:04.579Z,25.00
2022-10-26T12:51:39.888Z,25.20
2022-10-26T12:54:34.901Z,25.50
2022-10-26T12:57:29.110Z,25.60
2022-10-26T13:00:06.954Z,25.20
2022-10-26T13:02:52.799Z,25.00
2022-10-26T13:05:57.295Z,24.50
2022-10-26T13:08:44.019Z,23.80
2022-10-26T13:11:44.093Z,23.10
2022-10-26T13:14:30.879Z,22.50
2022-10-26T13:17:07.358Z,22.00
2022-10-26T13:19:50.006Z,21.60
2022-10-26T13:22:24.884Z,21.20
2022-10-26T13:25:05.183Z,20.90
2022-10-26T13:27:38.277Z,20.60
2022-10-26T13:30:43.671Z,20.40
2022-10-26T13:33:22.197Z,20.20
2022-10-26T13:35:58.688Z,20.00
2022-10-26T13:38:34.447Z,20.00
2022-10-26T13:41:28.256Z,19.90
2022-10-26T13:44:06.407Z,19.80
2022-10-26T13:46:41.798Z,19.70
2022-10-26T13:49:39.060Z,19.70
2022-10-26T13:52:43.738Z,19.60
2022-10-26T13:55:59.642Z,19.50
2022-10-26T13:59:03.556Z,19.50
2022-10-26T14:01:37.821Z,19.40
2022-10-26T14:04:27.590Z,19.40
2022-10-26T14:07:03.290Z,19.30
2022-10-26T14:09:37.323Z,19.30
2022-10-26T14:12:11.581Z,19.30
2022-10-26T14:14:44.404Z,19.20
2022-10-26T14:17:24.883Z,19.20
2022-10-26T14:19:58.319Z,19.10
2022-10-26T14:22:31.798Z,19.10
2022-10-26T14:25:17.786Z,19.00
2022-10-26T14:27:51.857Z,19.00
2022-10-26T14:30:28.936Z,19.00
2022-10-26T14:33:17.336Z,19.00
2022-10-26T14:35:50.864Z,19.00
2022-10-26T14:38:29.996Z,19.10
2022-10-26T14:41:02.863Z,19.10
2022-10-26T14:43:35.856Z,19.20
2022-10-26T14:46:18.052Z,19.20
2022-10-26T14:48:57.298Z,19.20
2022-10-26T14:51:35.196Z,19.20
2022-10-26T14:54:20.786Z,19.20
2022-10-26T14:56:54.126Z,19.20
2022-10-26T14:59:32.100Z,19.20
2022-10-26T15:02:10.835Z,19.10
2022-10-26T15:05:02.167Z,19.10
2022-10-26T15:07:40.981Z,19.00
2022-10-26T15:10:35.854Z,19.00
2022-10-26T15:13:10.329Z,18.90
2022-10-26T15:15:46.999Z,18.90
2022-10-26T15:18:24.497Z,18.90
2022-10-26T15:20:58.157Z,18.80
2022-10-26T15:23:31.739Z,18.70
2022-10-26T15:26:04.750Z,18.70
2022-10-26T15:28:38.766Z,18.70
2022-10-26T15:31:36.996Z,18.60
2022-10-26T15:34:14.657Z,18.50
2022-10-26T15:36:47.570Z,18.50
2022-10-26T15:39:20.670Z,18.40
2022-10-26T15:41:53.710Z,18.40
2022-10-26T15:44:26.642Z,18.30
2022-10-26T15:47:05.043Z,18.30
2022-10-26T15:49:40.810Z,18.20
2022-10-26T15:52:14.171Z,18.20
2022-10-26T15:54:48.285Z,18.10
2022-10-26T15:57:21.655Z,18.10
2022-10-26T15:59:54.675Z,18.10
2022-10-26T16:02:28.086Z,18.00
2022-10-26T16:05:00.977Z,18.00
2022-10-26T16:07:33.779Z,18.00
2022-10-26T16:10:07.201Z,17.90
2022-10-26T16:12:40.834Z,17.90
2022-10-26T16:15:24.642Z,17.90
2022-10-26T16:17:57.734Z,17.80
2022-10-26T16:20:30.830Z,17.80
2022-10-26T16:23:06.956Z,17.70
2022-10-26T16:25:46.705Z,17.70
2022-10-26T16:28:19.506Z,17.60
2022-10-26T16:30:58.771Z,17.50
2022-10-26T16:33:32.253Z,17.50
2022-10-26T16:36:06.959Z,17.40
2022-10-26T16:38:40.282Z,17.40
2022-10-26T16:41:17.364Z,17.30
2022-10-26T16:43:50.363Z,17.20
2022-10-26T16:46:24.051Z,17.20
2022-10-26T16:48:56.927Z,17.10
2022-10-26T16:51:30.002Z,17.10
2022-10-26T16:54:02.925Z,17.00
2022-10-26T16:56:36.231Z,17.00
2022-10-26T16:59:10.228Z,17.00
2022-10-26T17:01:43.152Z,16.90
2022-10-26T17:04:16.044Z,16.90
2022-10-26T17:06:49.122Z,16.80
2022-10-26T17:09:22.167Z,16.80
2022-10-26T17:11:58.279Z,16.70
2022-10-26T17:14:34.590Z,16.60
2022-10-26T17:17:07.498Z,16.60
2022-10-26T17:19:40.444Z,16.50
2022-10-26T17:22:13.182Z,16.40
2022-10-26T17:24:45.994Z,16.40
2022-10-26T17:27:20.238Z,16.30
2022-10-26T17:29:52.945Z,16.20
2022-10-26T17:32:25.628Z,16.10
2022-10-26T17:34:58.834Z,16.10
2022-10-26T17:37:31.595Z,16.00
2022-10-26T17:40:04.848Z,15.90
2022-10-26T17:42:37.754Z,15.90
2022-10-26T17:45:11.538Z,15.90
2022-10-26T17:47:44.485Z,15.90
2022-10-26T17:50:17.464Z,15.80
2022-10-26T17:52:50.362Z,15.70
2022-10-26T17:55:23.147Z,15.70
2022-10-26T17:57:56.361Z,15.70
2022-10-26T18:00:29.121Z,15.60
2022-10-26T18:03:01.853Z,15.60
2022-10-26T18:05:34.655Z,15.50
2022-10-26T18:08:07.499Z,15.50
2022-10-26T18:10:55.363Z,15.50
2022-10-26T18:13:31.194Z,15.40
2022-10-26T18:16:16.350Z,15.40
2022-10-26T18:18:54.841Z,15.40
2022-10-26T18:21:30.901Z,15.30
2022-10-26T18:24:05.019Z,15.20
2022-10-26T18:26:37.798Z,15.20
2022-10-26T18:29:12.795Z,15.20
2022-10-26T18:31:45.992Z,15.10
2022-10-26T18:34:18.862Z,15.00
2022-10-26T18:36:53.056Z,15.00
2022-10-26T18:39:25.884Z,15.00
2022-10-26T18:41:58.711Z,14.90
2022-10-26T18:44:32.466Z,14.90
2022-10-26T18:47:05.192Z,14.90
2022-10-26T18:49:41.576Z,14.80
2022-10-26T18:52:14.251Z,14.80
2022-10-26T18:54:47.028Z,14.80
2022-10-26T18:57:24.431Z,14.70
2022-10-26T18:59:57.492Z,14.70
2022-10-26T19:02:30.226Z,14.60
2022-10-26T19:05:03.173Z,14.60
2022-10-26T19:07:38.984Z,14.60
2022-10-26T19:10:11.747Z,14.60
2022-10-26T19:12:44.470Z,14.50
2022-10-26T19:15:17.259Z,14.50
2022-10-26T19:17:50.516Z,14.50
2022-10-26T19:20:23.251Z,14.50
2022-10-26T19:22:56.160Z,14.40
2022-10-26T19:25:28.874Z,14.40
2022-10-26T19:28:01.627Z,14.40
2022-10-26T19:30:38.633Z,14.30
2022-10-26T19:33:11.298Z,14.30
2022-10-26T19:35:44.176Z,14.20
2022-10-26T19:38:16.910Z,14.20
2022-10-26T19:40:57.405Z,14.10
2022-10-26T19:43:32.376Z,14.10
2022-10-26T19:46:19.138Z,14.10
2022-10-26T19:48:58.266Z,14.00
2022-10-26T19:51:31.973Z,14.00
2022-10-26T19:54:07.003Z,14.00
2022-10-26T19:56:39.881Z,13.90
2022-10-26T19:59:12.822Z,13.90
